Time;durP1;ratioP1;P1;durP2;ratioP2;P2;SDS_P1;SDS_P2;PMS_P1;PMS_P2;Temp;Humidity;BMP_temperature;BMP_pressure;BME280_temperature;BME280_humidity;BME280_pressure;Samples;Min_cycle;Max_cycle;Signal;HPM_P1;HPM_P2
2023/01/23 00:01:41;;;;;;;;;;;1.20;99.90;;;;;;4996164;28;20361;-79
2023/01/23 00:04:08;;;;;;;;;;;1.20;99.90;;;;;;4981599;28;20199;-79
2023/01/23 00:06:34;;;;;;;;;;;1.20;99.90;;;;;;5003460;28;19916;-79
2023/01/23 00:09:00;;;;;;;;;;;1.10;99.90;;;;;;5040770;28;19927;-78
2023/01/23 00:11:30;;;;;;;;;;;1.20;99.90;;;;;;5042571;28;19924;-79
2023/01/23 00:13:57;;;;;;;;;;;1.30;99.90;;;;;;5043049;28;19909;-79
2023/01/23 00:16:23;;;;;;;;;;;1.30;99.90;;;;;;5047183;28;19909;-78
2023/01/23 00:18:51;;;;;;;;;;;1.30;99.90;;;;;;5048216;28;19909;-78
2023/01/23 00:21:18;;;;;;;;;;;1.40;99.90;;;;;;5029792;28;19991;-78
2023/01/23 00:23:45;;;;;;;;;;;3.80;99.90;;;;;;5047826;28;19995;-79
2023/01/23 00:26:14;;;;;;;;;;;1.30;99.90;;;;;;5031053;28;19915;-79
2023/01/23 00:28:40;;;;;;;;;;;1.20;99.90;;;;;;5029169;28;19913;-79
2023/01/23 00:31:08;;;;;;;;;;;3.10;99.90;;;;;;5047982;28;19909;-79
2023/01/23 00:33:33;;;;;;;;;;;-0.90;99.90;;;;;;5033712;28;19912;-78
2023/01/23 00:36:02;;;;;;;;;;;1.10;99.90;;;;;;5030230;28;20014;-79
2023/01/23 00:38:28;;;;;;;;;;;1.10;99.90;;;;;;5032972;28;19909;-79
2023/01/23 00:40:55;;;;;;;;;;;1.10;99.90;;;;;;5058632;28;20188;-78
2023/01/23 00:43:26;;;;;;;;;;;1.10;99.90;;;;;;5057298;28;19913;-79
2023/01/23 00:45:52;;;;;;;;;;;3.00;99.90;;;;;;5032442;28;19908;-79
2023/01/23 00:48:17;;;;;;;;;;;1.10;99.90;;;;;;5049425;28;19909;-79
2023/01/23 00:50:43;;;;;;;;;;;1.10;99.90;;;;;;5037149;28;19913;-78
2023/01/23 00:53:09;;;;;;;;;;;1.20;99.90;;;;;;5053738;28;19909;-78
2023/01/23 00:55:37;;;;;;;;;;;1.20;99.90;;;;;;5050673;28;19919;-79
2023/01/23 00:58:10;;;;;;;;;;;1.60;99.90;;;;;;5032887;28;19908;-78
2023/01/23 01:00:36;;;;;;;;;;;1.10;99.90;;;;;;5028468;28;19916;-78
2023/01/23 01:03:05;;;;;;;;;;;1.10;99.90;;;;;;5045352;28;19987;-79
2023/01/23 01:05:30;;;;;;;;;;;1.20;99.90;;;;;;5046037;28;19909;-79
2023/01/23 01:07:56;;;;;;;;;;;1.20;99.90;;;;;;5051048;28;19952;-79
2023/01/23 01:10:32;;;;;;;;;;;1.20;99.90;;;;;;5049297;28;20198;-79
2023/01/23 01:13:04;;;;;;;;;;;1.20;99.90;;;;;;5025973;28;20391;-78
2023/01/23 01:15:30;;;;;;;;;;;3.10;99.90;;;;;;5027260;28;20390;-78
2023/01/23 01:18:05;;;;;;;;;;;1.10;99.90;;;;;;5046654;28;19940;-79
2023/01/23 01:20:31;;;;;;;;;;;1.20;99.90;;;;;;5030993;28;19917;-79
2023/01/23 01:22:57;;;;;;;;;;;0.50;99.90;;;;;;5045936;28;19972;-79
2023/01/23 01:25:26;;;;;;;;;;;1.20;99.90;;;;;;5029078;28;19909;-79
2023/01/23 01:27:52;;;;;;;;;;;1.20;99.90;;;;;;5053121;28;19947;-79
2023/01/23 01:30:20;;;;;;;;;;;1.20;99.90;;;;;;5035356;28;19913;-79
2023/01/23 01:32:48;;;;;;;;;;;1.00;99.90;;;;;;5050598;28;20659;-79
2023/01/23 01:35:14;;;;;;;;;;;1.50;99.90;;;;;;5029794;28;20382;-79
2023/01/23 01:37:45;;;;;;;;;;;1.20;99.90;;;;;;5048235;28;20423;-79
2023/01/23 01:40:13;;;;;;;;;;;3.50;99.90;;;;;;5027440;28;20125;-79
2023/01/23 01:42:40;;;;;;;;;;;1.20;99.90;;;;;;5045637;28;19995;-79
2023/01/23 01:45:29;;;;;;;;;;;1.10;99.90;;;;;;5029965;28;19940;-79
2023/01/23 01:47:55;;;;;;;;;;;-0.70;99.90;;;;;;5032360;28;20350;-79
2023/01/23 01:50:20;;;;;;;;;;;1.20;99.90;;;;;;5033251;28;19935;-79
2023/01/23 01:52:46;;;;;;;;;;;1.10;99.90;;;;;;5031627;28;19987;-79
2023/01/23 01:55:14;;;;;;;;;;;1.00;99.90;;;;;;5029522;28;20372;-79
2023/01/23 01:57:43;;;;;;;;;;;1.00;99.90;;;;;;5028097;28;19919;-79
2023/01/23 02:00:15;;;;;;;;;;;1.00;99.90;;;;;;5048055;28;19995;-81
2023/01/23 02:02:40;;;;;;;;;;;0.90;99.90;;;;;;5032664;28;20371;-79
2023/01/23 02:05:08;;;;;;;;;;;1.00;99.90;;;;;;5049695;28;19920;-79
2023/01/23 02:08:06;;;;;;;;;;;1.00;99.90;;;;;;5032248;28;20488;-79
2023/01/23 02:10:33;;;;;;;;;;;1.00;99.90;;;;;;4971163;28;19914;-79
2023/01/23 02:13:17;;;;;;;;;;;0.90;99.90;;;;;;4966858;28;19937;-80
2023/01/23 02:15:44;;;;;;;;;;;0.90;99.90;;;;;;4990587;28;19961;-79
2023/01/23 02:18:09;;;;;;;;;;;0.90;99.90;;;;;;4969832;28;19917;-79
2023/01/23 02:20:35;;;;;;;;;;;0.40;99.90;;;;;;4990066;28;19925;-79
2023/01/23 02:23:05;;;;;;;;;;;0.90;99.90;;;;;;4972675;28;20300;-79
2023/01/23 02:25:37;;;;;;;;;;;1.00;99.90;;;;;;4975220;28;19910;-78
2023/01/23 02:28:02;;;;;;;;;;;1.00;99.90;;;;;;4973727;28;19909;-79
2023/01/23 02:30:28;;;;;;;;;;;1.20;99.90;;;;;;4969651;28;20304;-79
2023/01/23 02:33:14;;;;;;;;;;;0.40;99.90;;;;;;4983162;28;19921;-79
2023/01/23 02:35:39;;;;;;;;;;;1.10;99.90;;;;;;4944132;28;19986;-79
2023/01/23 02:38:06;;;;;;;;;;;1.10;99.90;;;;;;4944613;28;20429;-79
2023/01/23 02:40:36;;;;;;;;;;;1.20;99.90;;;;;;4926422;28;19925;-79
2023/01/23 02:43:03;;;;;;;;;;;1.10;99.90;;;;;;4946587;29;19911;-79
2023/01/23 02:45:31;;;;;;;;;;;1.10;99.90;;;;;;4957448;28;19920;-79
2023/01/23 02:47:56;;;;;;;;;;;1.10;99.90;;;;;;4985858;28;19911;-79
2023/01/23 02:50:22;;;;;;;;;;;1.10;99.90;;;;;;5000649;28;20407;-79
2023/01/23 02:52:49;;;;;;;;;;;1.10;99.90;;;;;;4983022;28;20016;-79
2023/01/23 02:55:18;;;;;;;;;;;1.10;99.90;;;;;;5016422;28;19977;-79
2023/01/23 02:57:46;;;;;;;;;;;1.20;99.90;;;;;;5003975;28;19913;-78
2023/01/23 03:00:15;;;;;;;;;;;3.50;99.90;;;;;;4984637;28;19979;-80
2023/01/23 03:02:41;;;;;;;;;;;1.20;99.90;;;;;;4999854;28;20277;-79
2023/01/23 03:05:07;;;;;;;;;;;1.20;99.90;;;;;;4985329;28;19920;-79
2023/01/23 03:07:33;;;;;;;;;;;1.20;99.90;;;;;;4985928;28;19958;-79
2023/01/23 03:09:58;;;;;;;;;;;1.20;99.90;;;;;;5002810;28;20202;-79
2023/01/23 03:12:24;;;;;;;;;;;1.30;99.90;;;;;;4997818;28;20526;-79
2023/01/23 03:14:53;;;;;;;;;;;1.30;99.90;;;;;;5028767;28;20214;-79
2023/01/23 03:17:19;;;;;;;;;;;1.30;99.90;;;;;;5028452;28;20327;-79
2023/01/23 03:19:45;;;;;;;;;;;1.30;99.90;;;;;;5044423;28;19960;-79
2023/01/23 03:22:10;;;;;;;;;;;1.30;99.90;;;;;;5023050;28;19953;-79
2023/01/23 03:24:37;;;;;;;;;;;1.40;99.90;;;;;;5041855;28;19929;-79
2023/01/23 03:27:03;;;;;;;;;;;1.30;99.90;;;;;;5024503;28;19917;-79
2023/01/23 03:32:14;;;;;;;;;;;1.40;99.90;;;;;;5045285;28;20101;-79
2023/01/23 03:34:41;;;;;;;;;;;1.40;99.90;;;;;;5023982;28;19915;-79
2023/01/23 03:37:07;;;;;;;;;;;1.40;99.90;;;;;;5043768;28;20004;-79
2023/01/23 03:42:19;;;;;;;;;;;1.40;99.90;;;;;;5043347;28;19982;-79
2023/01/23 03:44:45;;;;;;;;;;;1.40;99.90;;;;;;5022700;28;19948;-79
2023/01/23 03:47:10;;;;;;;;;;;1.40;99.90;;;;;;5030884;28;19909;-79
2023/01/23 03:49:36;;;;;;;;;;;1.40;99.90;;;;;;5026063;28;19920;-79
2023/01/23 03:52:02;;;;;;;;;;;1.40;99.90;;;;;;5022463;28;19916;-79
2023/01/23 03:54:28;;;;;;;;;;;1.40;99.90;;;;;;5006924;28;20268;-78
2023/01/23 03:56:54;;;;;;;;;;;1.30;99.90;;;;;;5041932;28;20326;-79
2023/01/23 03:59:19;;;;;;;;;;;1.30;99.90;;;;;;5022673;28;20433;-79
2023/01/23 04:01:46;;;;;;;;;;;1.30;99.90;;;;;;5040432;28;20225;-79
2023/01/23 04:04:12;;;;;;;;;;;1.40;99.90;;;;;;5023341;28;19909;-79
2023/01/23 04:06:38;;;;;;;;;;;1.40;99.90;;;;;;5023906;28;19908;-79
2023/01/23 04:09:04;;;;;;;;;;;1.40;99.90;;;;;;5040284;28;19927;-79
2023/01/23 04:11:32;;;;;;;;;;;1.40;99.90;;;;;;5025487;28;19909;-79
2023/01/23 04:14:03;;;;;;;;;;;1.40;99.90;;;;;;5023673;28;20182;-79
2023/01/23 04:16:29;;;;;;;;;;;1.40;99.90;;;;;;5040634;28;19908;-79
2023/01/23 04:18:54;;;;;;;;;;;1.40;99.90;;;;;;5021726;28;19920;-79
2023/01/23 04:21:20;;;;;;;;;;;1.80;99.90;;;;;;5040216;28;19924;-79
2023/01/23 04:23:46;;;;;;;;;;;1.30;99.90;;;;;;5040929;28;19909;-79
2023/01/23 04:26:12;;;;;;;;;;;1.30;99.90;;;;;;5023900;28;20435;-79
2023/01/23 04:28:37;;;;;;;;;;;1.40;99.90;;;;;;5040429;28;19909;-79
2023/01/23 04:31:03;;;;;;;;;;;1.40;99.90;;;;;;5040025;28;20324;-79
2023/01/23 04:33:29;;;;;;;;;;;1.40;99.90;;;;;;5041761;28;19917;-79
2023/01/23 04:35:55;;;;;;;;;;;1.40;99.90;;;;;;5024073;28;19923;-79
2023/01/23 04:38:24;;;;;;;;;;;1.40;99.90;;;;;;5041306;28;20240;-79
2023/01/23 04:40:50;;;;;;;;;;;1.40;99.90;;;;;;5022309;28;19924;-79
2023/01/23 04:43:15;;;;;;;;;;;1.40;99.90;;;;;;5022602;28;19920;-79
2023/01/23 04:45:44;;;;;;;;;;;1.40;99.90;;;;;;5040412;28;19913;-80
2023/01/23 04:48:10;;;;;;;;;;;1.40;99.90;;;;;;5025306;28;20027;-79
2023/01/23 04:50:36;;;;;;;;;;;1.30;99.90;;;;;;5030223;28;19975;-79
2023/01/23 04:53:02;;;;;;;;;;;1.30;99.90;;;;;;5042359;28;20399;-79
2023/01/23 04:55:27;;;;;;;;;;;1.30;99.90;;;;;;5022784;28;20323;-79
2023/01/23 04:57:53;;;;;;;;;;;1.30;99.90;;;;;;5025248;28;19909;-79
2023/01/23 05:00:20;;;;;;;;;;;1.30;99.90;;;;;;5042586;28;19940;-79
2023/01/23 05:02:46;;;;;;;;;;;1.40;99.90;;;;;;5023698;28;19917;-79
2023/01/23 05:05:11;;;;;;;;;;;1.40;99.90;;;;;;5048085;28;20300;-78
2023/01/23 05:07:37;;;;;;;;;;;1.40;99.90;;;;;;5026679;28;19951;-78
2023/01/23 05:10:03;;;;;;;;;;;3.20;99.90;;;;;;5026296;28;20279;-79
2023/01/23 05:12:29;;;;;;;;;;;1.30;99.90;;;;;;5044501;28;19982;-79
2023/01/23 05:14:54;;;;;;;;;;;1.30;99.90;;;;;;5044753;28;19913;-79
2023/01/23 05:17:20;;;;;;;;;;;1.30;99.90;;;;;;5027366;28;20509;-79
2023/01/23 05:19:49;;;;;;;;;;;2.60;99.90;;;;;;5027696;28;20154;-79
2023/01/23 05:22:17;;;;;;;;;;;1.20;99.90;;;;;;5028322;28;19909;-79
2023/01/23 05:24:43;;;;;;;;;;;1.30;99.90;;;;;;5031831;28;19913;-79
2023/01/23 05:27:09;;;;;;;;;;;1.30;99.90;;;;;;5029144;28;19931;-79
2023/01/23 05:29:37;;;;;;;;;;;1.30;99.90;;;;;;5042863;28;19916;-79
2023/01/23 05:32:05;;;;;;;;;;;-0.80;99.90;;;;;;5027392;28;19928;-78
2023/01/23 05:34:31;;;;;;;;;;;1.30;99.90;;;;;;5032547;28;19908;-79
2023/01/23 05:36:57;;;;;;;;;;;1.30;99.90;;;;;;5052561;28;19948;-81
2023/01/23 05:39:23;;;;;;;;;;;1.40;99.90;;;;;;5052826;28;19924;-80
2023/01/23 05:41:48;;;;;;;;;;;0.20;99.90;;;;;;5050878;28;19940;-80
2023/01/23 05:44:14;;;;;;;;;;;-1.00;99.90;;;;;;5029358;28;20366;-79
2023/01/23 05:46:45;;;;;;;;;;;1.20;99.90;;;;;;5046275;28;19909;-79
2023/01/23 05:49:11;;;;;;;;;;;-0.80;99.90;;;;;;5044760;28;19982;-79
2023/01/23 05:51:36;;;;;;;;;;;1.40;99.90;;;;;;5043101;28;20222;-79
2023/01/23 05:54:02;;;;;;;;;;;1.40;99.90;;;;;;5029219;28;19915;-79
2023/01/23 05:56:28;;;;;;;;;;;1.50;99.90;;;;;;5045218;28;19909;-78
2023/01/23 05:58:56;;;;;;;;;;;1.50;99.90;;;;;;5026134;28;19948;-79
2023/01/23 06:01:22;;;;;;;;;;;3.40;99.90;;;;;;5025680;28;20410;-79
2023/01/23 06:03:47;;;;;;;;;;;1.40;99.90;;;;;;5024622;28;19913;-79
2023/01/23 06:06:13;;;;;;;;;;;1.40;99.90;;;;;;5024950;28;19917;-79
2023/01/23 06:08:39;;;;;;;;;;;1.50;99.90;;;;;;5026254;28;20407;-79
2023/01/23 06:11:04;;;;;;;;;;;1.50;99.90;;;;;;5043707;28;20228;-79
2023/01/23 06:13:33;;;;;;;;;;;1.30;99.90;;;;;;5041926;28;19919;-79
2023/01/23 06:15:59;;;;;;;;;;;1.60;99.90;;;;;;5045155;28;20348;-79
2023/01/23 06:18:24;;;;;;;;;;;1.50;99.90;;;;;;5044064;28;19909;-79
2023/01/23 06:20:56;;;;;;;;;;;1.60;99.90;;;;;;5022748;28;19927;-79
2023/01/23 06:23:21;;;;;;;;;;;2.20;99.90;;;;;;5045810;28;19935;-79
2023/01/23 06:25:50;;;;;;;;;;;1.60;99.90;;;;;;5046228;28;19909;-78
2023/01/23 06:28:18;;;;;;;;;;;1.60;99.90;;;;;;5029604;28;19913;-78
2023/01/23 06:30:43;;;;;;;;;;;2.10;99.90;;;;;;5045551;28;20130;-78
2023/01/23 06:33:11;;;;;;;;;;;1.70;99.90;;;;;;5042406;28;19913;-78
2023/01/23 06:35:37;;;;;;;;;;;1.40;99.90;;;;;;5043035;28;20018;-78
2023/01/23 06:38:05;;;;;;;;;;;1.40;99.90;;;;;;5027712;28;20209;-78
2023/01/23 06:40:33;;;;;;;;;;;1.30;99.90;;;;;;5042821;28;19960;-78
2023/01/23 06:43:01;;;;;;;;;;;1.20;99.90;;;;;;5042907;28;19924;-78
2023/01/23 06:45:27;;;;;;;;;;;1.80;99.90;;;;;;5042379;28;19909;-78
2023/01/23 06:47:52;;;;;;;;;;;1.20;99.90;;;;;;5023445;28;20288;-79
2023/01/23 06:50:21;;;;;;;;;;;1.20;99.90;;;;;;5025838;28;19908;-78
2023/01/23 06:52:49;;;;;;;;;;;1.20;99.90;;;;;;5042537;28;19908;-78
2023/01/23 06:55:15;;;;;;;;;;;1.20;99.90;;;;;;5043471;28;20000;-79
2023/01/23 06:57:40;;;;;;;;;;;-0.40;99.90;;;;;;5042951;28;19963;-78
2023/01/23 07:00:12;;;;;;;;;;;1.30;99.90;;;;;;5041893;28;19944;-79
2023/01/23 07:02:38;;;;;;;;;;;1.30;99.90;;;;;;5024235;28;19909;-78
2023/01/23 07:05:04;;;;;;;;;;;1.30;99.90;;;;;;5022471;28;20007;-78
2023/01/23 07:07:35;;;;;;;;;;;1.40;99.90;;;;;;5023564;28;20000;-78
2023/01/23 07:10:03;;;;;;;;;;;1.50;99.90;;;;;;5023609;28;20075;-78
2023/01/23 07:12:29;;;;;;;;;;;1.50;99.90;;;;;;5024404;28;20099;-79
2023/01/23 07:14:55;;;;;;;;;;;1.60;99.90;;;;;;5041407;28;19913;-77
2023/01/23 07:17:20;;;;;;;;;;;1.60;99.90;;;;;;5024123;28;20099;-77
2023/01/23 07:19:46;;;;;;;;;;;1.40;99.90;;;;;;5024723;28;19917;-78
2023/01/23 07:22:11;;;;;;;;;;;1.30;99.90;;;;;;5024490;28;19927;-78
2023/01/23 07:24:37;;;;;;;;;;;1.20;99.90;;;;;;5027113;28;19996;-77
2023/01/23 07:27:03;;;;;;;;;;;1.30;99.90;;;;;;5042140;28;19908;-77
2023/01/23 07:29:28;;;;;;;;;;;1.30;99.90;;;;;;5041858;28;19908;-77
2023/01/23 07:31:54;;;;;;;;;;;1.30;99.90;;;;;;5042659;28;20379;-77
2023/01/23 07:34:19;;;;;;;;;;;1.40;99.90;;;;;;5024803;28;20382;-77
2023/01/23 07:36:47;;;;;;;;;;;1.30;99.90;;;;;;5042895;28;19919;-77
2023/01/23 07:39:14;;;;;;;;;;;3.30;99.90;;;;;;5046178;28;19924;-77
2023/01/23 07:41:40;;;;;;;;;;;1.40;99.90;;;;;;5025074;28;19909;-77
2023/01/23 07:44:06;;;;;;;;;;;1.50;99.90;;;;;;5025374;28;20434;-77
2023/01/23 07:46:31;;;;;;;;;;;1.70;99.90;;;;;;5041961;28;20000;-77
2023/01/23 07:48:57;;;;;;;;;;;1.70;99.90;;;;;;5026706;28;20355;-77
2023/01/23 07:51:22;;;;;;;;;;;1.20;99.90;;;;;;5041874;28;19954;-77
2023/01/23 07:53:51;;;;;;;;;;;1.80;99.90;;;;;;5045749;28;20121;-77
2023/01/23 07:56:17;;;;;;;;;;;1.70;99.90;;;;;;5046702;28;20263;-77
2023/01/23 07:58:43;;;;;;;;;;;2.10;99.90;;;;;;5026125;28;19913;-78
2023/01/23 08:01:09;;;;;;;;;;;1.90;99.90;;;;;;5024435;28;20449;-77
2023/01/23 08:03:37;;;;;;;;;;;1.90;99.90;;;;;;5025678;28;19909;-78
2023/01/23 08:06:03;;;;;;;;;;;2.10;99.90;;;;;;5043205;28;20323;-77
2023/01/23 08:08:29;;;;;;;;;;;2.20;99.90;;;;;;5041260;28;20020;-77
2023/01/23 08:10:55;;;;;;;;;;;2.30;99.90;;;;;;5023642;28;19916;-77
2023/01/23 08:13:20;;;;;;;;;;;2.50;99.90;;;;;;5040937;28;19924;-77
2023/01/23 08:15:46;;;;;;;;;;;2.60;99.90;;;;;;5041068;28;19908;-77
2023/01/23 08:18:11;;;;;;;;;;;2.40;99.90;;;;;;5022606;28;20316;-77
2023/01/23 08:20:37;;;;;;;;;;;2.30;99.90;;;;;;5024083;28;19917;-77
2023/01/23 08:23:02;;;;;;;;;;;2.20;99.90;;;;;;5042324;28;20505;-77
2023/01/23 08:25:28;;;;;;;;;;;2.30;99.90;;;;;;5044101;28;19909;-78
2023/01/23 08:27:54;;;;;;;;;;;2.30;99.90;;;;;;5025994;28;19909;-77
2023/01/23 08:30:20;;;;;;;;;;;2.30;99.90;;;;;;5024894;28;19909;-77
2023/01/23 08:32:45;;;;;;;;;;;2.40;99.90;;;;;;5023195;28;19909;-77
2023/01/23 08:35:11;;;;;;;;;;;2.40;99.90;;;;;;5041520;28;19909;-77
2023/01/23 08:37:37;;;;;;;;;;;2.50;99.90;;;;;;5028416;28;19913;-77
2023/01/23 08:40:03;;;;;;;;;;;2.60;99.90;;;;;;5047121;28;19923;-78
2023/01/23 08:42:29;;;;;;;;;;;2.80;99.90;;;;;;5046795;28;19916;-78
2023/01/23 08:44:58;;;;;;;;;;;2.80;99.90;;;;;;5028222;28;19913;-77
2023/01/23 08:47:24;;;;;;;;;;;2.90;99.90;;;;;;5047617;28;19952;-77
2023/01/23 08:49:49;;;;;;;;;;;2.90;99.90;;;;;;5027503;28;19951;-77
2023/01/23 08:52:15;;;;;;;;;;;2.90;99.90;;;;;;5044520;28;19974;-77
2023/01/23 08:54:40;;;;;;;;;;;2.90;99.90;;;;;;5049794;28;19909;-77
2023/01/23 08:57:06;;;;;;;;;;;2.90;99.90;;;;;;5030803;28;19913;-77
2023/01/23 08:59:32;;;;;;;;;;;2.90;99.90;;;;;;5047961;28;19921;-77
2023/01/23 09:01:57;;;;;;;;;;;2.50;99.90;;;;;;5047889;28;19948;-77
2023/01/23 09:04:23;;;;;;;;;;;2.80;99.90;;;;;;5029128;28;20642;-77
2023/01/23 09:06:48;;;;;;;;;;;1.50;99.90;;;;;;5048288;28;19909;-77
2023/01/23 09:09:17;;;;;;;;;;;2.70;99.90;;;;;;5030384;28;19944;-77
2023/01/23 09:11:46;;;;;;;;;;;2.70;99.90;;;;;;5047616;28;19919;-78
2023/01/23 09:14:14;;;;;;;;;;;2.60;99.90;;;;;;5031930;28;19913;-77
2023/01/23 09:16:43;;;;;;;;;;;3.90;99.90;;;;;;5030698;28;19912;-77
2023/01/23 09:19:10;;;;;;;;;;;3.30;99.90;;;;;;5027906;28;20120;-77
2023/01/23 09:21:36;;;;;;;;;;;2.60;99.90;;;;;;5026836;28;20564;-77
2023/01/23 09:24:02;;;;;;;;;;;2.60;99.90;;;;;;5045300;28;19931;-77
2023/01/23 09:26:27;;;;;;;;;;;5.60;99.90;;;;;;5027309;28;19911;-76
2023/01/23 09:28:53;;;;;;;;;;;2.70;99.90;;;;;;5044263;28;19908;-77
2023/01/23 09:31:19;;;;;;;;;;;2.80;99.90;;;;;;5029181;28;19995;-77
2023/01/23 09:33:44;;;;;;;;;;;2.90;99.90;;;;;;5028456;28;20650;-77
2023/01/23 09:36:10;;;;;;;;;;;1.20;99.90;;;;;;5034102;28;19909;-77
2023/01/23 09:38:36;;;;;;;;;;;1.60;99.90;;;;;;5028566;28;20406;-77
2023/01/23 09:41:28;;;;;;;;;;;3.10;99.90;;;;;;5047497;28;19919;-77
2023/01/23 09:43:57;;;;;;;;;;;3.20;99.90;;;;;;5043429;28;20561;-77
2023/01/23 09:46:49;;;;;;;;;;;3.30;99.90;;;;;;5027556;28;19909;-77
2023/01/23 09:49:27;;;;;;;;;;;3.10;99.90;;;;;;5026815;28;19905;-77
2023/01/23 09:51:52;;;;;;;;;;;3.30;99.90;;;;;;5044789;28;19940;-77
2023/01/23 09:54:18;;;;;;;;;;;3.30;99.90;;;;;;5028362;28;19916;-77
2023/01/23 09:56:49;;;;;;;;;;;3.40;99.90;;;;;;5028512;28;20535;-77
2023/01/23 09:59:17;;;;;;;;;;;3.40;99.90;;;;;;5046988;28;19905;-77
2023/01/23 10:01:43;;;;;;;;;;;6.00;99.90;;;;;;5028199;28;19909;-77
2023/01/23 10:04:13;;;;;;;;;;;3.50;99.90;;;;;;5029807;28;19905;-77
2023/01/23 10:07:02;;;;;;;;;;;3.50;99.90;;;;;;5046857;28;19940;-77
2023/01/23 10:09:33;;;;;;;;;;;1.80;99.90;;;;;;5020219;28;19931;-77
2023/01/23 10:12:21;;;;;;;;;;;3.60;99.90;;;;;;5047253;28;19909;-77
2023/01/23 10:14:46;;;;;;;;;;;3.70;99.90;;;;;;5028143;28;19917;-77
2023/01/23 10:17:23;;;;;;;;;;;3.80;99.90;;;;;;5046636;28;19963;-76
2023/01/23 10:20:08;;;;;;;;;;;3.90;99.90;;;;;;5044791;28;19920;-77
2023/01/23 10:22:36;;;;;;;;;;;3.90;99.90;;;;;;5027630;28;20025;-78
2023/01/23 10:25:09;;;;;;;;;;;3.80;99.90;;;;;;5043866;28;19916;-77
2023/01/23 10:27:37;;;;;;;;;;;3.80;99.90;;;;;;5045353;28;19908;-77
2023/01/23 10:30:23;;;;;;;;;;;3.80;99.90;;;;;;5045463;28;19905;-77
2023/01/23 10:32:51;;;;;;;;;;;3.90;99.90;;;;;;5017831;28;19905;-75
2023/01/23 10:35:21;;;;;;;;;;;4.20;99.90;;;;;;5044995;28;19937;-76
2023/01/23 10:37:52;;;;;;;;;;;4.20;99.90;;;;;;5031280;28;20395;-76
2023/01/23 10:41:12;;;;;;;;;;;4.20;99.90;;;;;;5027950;28;20561;-77
2023/01/23 10:43:13;;;;;;;;;;;4.20;99.90;;;;;;5042925;28;19913;-76
2023/01/23 10:45:39;;;;;;;;;;;4.20;99.90;;;;;;5027062;28;19920;-76
2023/01/23 10:48:24;;;;;;;;;;;4.10;99.90;;;;;;5025860;28;19912;-76
2023/01/23 10:50:50;;;;;;;;;;;4.10;99.90;;;;;;5023850;28;19909;-76
2023/01/23 10:53:18;;;;;;;;;;;4.20;99.90;;;;;;5026176;28;19924;-76
2023/01/23 10:55:44;;;;;;;;;;;5.10;99.90;;;;;;5027577;28;19980;-76
2023/01/23 10:58:20;;;;;;;;;;;4.20;99.90;;;;;;5030774;28;19975;-76
2023/01/23 11:00:46;;;;;;;;;;;4.20;99.90;;;;;;5047436;28;19917;-76
2023/01/23 11:03:21;;;;;;;;;;;4.20;99.90;;;;;;5031887;28;19909;-77
2023/01/23 11:05:53;;;;;;;;;;;4.10;99.90;;;;;;5049617;28;19905;-76
2023/01/23 11:08:38;;;;;;;;;;;4.10;99.90;;;;;;5049563;28;19927;-76
2023/01/23 11:11:22;;;;;;;;;;;4.00;99.90;;;;;;5028616;28;20178;-76
2023/01/23 11:13:50;;;;;;;;;;;3.80;99.90;;;;;;5027716;28;19916;-75
2023/01/23 11:16:17;;;;;;;;;;;3.40;99.90;;;;;;5027886;28;19912;-76
2023/01/23 11:18:52;;;;;;;;;;;3.60;99.90;;;;;;5048805;28;19916;-76
2023/01/23 11:21:28;;;;;;;;;;;3.50;99.90;;;;;;5040753;28;19956;-76
2023/01/23 11:24:13;;;;;;;;;;;3.40;99.90;;;;;;5029156;28;19917;-76
2023/01/23 11:26:38;;;;;;;;;;;3.50;99.90;;;;;;5045837;28;19991;-76
2023/01/23 11:29:24;;;;;;;;;;;3.40;99.90;;;;;;5048770;28;19952;-75
2023/01/23 11:32:04;;;;;;;;;;;3.40;99.90;;;;;;5027237;28;19905;-76
2023/01/23 11:34:35;;;;;;;;;;;3.40;99.90;;;;;;5046622;28;19995;-76
2023/01/23 11:37:10;;;;;;;;;;;3.50;99.90;;;;;;5028745;28;19905;-76
2023/01/23 11:39:39;;;;;;;;;;;3.60;99.90;;;;;;5025871;28;19917;-77
2023/01/23 11:42:06;;;;;;;;;;;3.70;99.90;;;;;;5044568;28;19905;-76
2023/01/23 11:44:32;;;;;;;;;;;3.40;99.90;;;;;;5042372;28;19904;-76
2023/01/23 11:47:06;;;;;;;;;;;5.00;99.90;;;;;;5044654;28;19909;-76
2023/01/23 11:49:47;;;;;;;;;;;4.10;99.90;;;;;;5044933;28;19951;-76
2023/01/23 11:52:18;;;;;;;;;;;4.10;99.90;;;;;;5043535;28;19967;-77
2023/01/23 11:54:47;;;;;;;;;;;4.10;99.90;;;;;;5044056;28;19917;-76
2023/01/23 11:57:22;;;;;;;;;;;3.90;99.90;;;;;;5027602;28;19905;-76
2023/01/23 11:59:55;;;;;;;;;;;4.20;99.90;;;;;;5043094;28;19970;-77
2023/01/23 12:02:29;;;;;;;;;;;4.10;99.90;;;;;;5026508;28;20090;-76
2023/01/23 12:05:14;;;;;;;;;;;4.10;99.90;;;;;;5043890;28;20517;-76
2023/01/23 12:07:58;;;;;;;;;;;4.20;99.90;;;;;;5044286;28;19917;-77
2023/01/23 12:10:47;;;;;;;;;;;4.00;99.90;;;;;;5045443;28;19916;-77
2023/01/23 12:13:25;;;;;;;;;;;4.00;99.90;;;;;;4967897;28;19938;-77
2023/01/23 12:16:02;;;;;;;;;;;4.00;99.90;;;;;;4985990;28;20194;-77
2023/01/23 12:18:35;;;;;;;;;;;4.00;99.90;;;;;;4985015;28;19954;-77
2023/01/23 12:21:08;;;;;;;;;;;4.00;99.90;;;;;;4968941;28;20062;-76
2023/01/23 12:23:36;;;;;;;;;;;4.00;99.90;;;;;;4984821;28;19914;-77
2023/01/23 12:26:10;;;;;;;;;;;4.20;99.90;;;;;;4984957;28;19913;-76
2023/01/23 12:28:50;;;;;;;;;;;4.30;99.90;;;;;;4984344;28;20064;-76
2023/01/23 12:31:28;;;;;;;;;;;4.30;99.90;;;;;;4985198;28;19949;-77
2023/01/23 12:33:56;;;;;;;;;;;4.40;99.90;;;;;;4982285;28;19906;-77
2023/01/23 12:36:41;;;;;;;;;;;4.40;99.90;;;;;;4968497;28;20240;-77
2023/01/23 12:39:13;;;;;;;;;;;5.20;99.90;;;;;;4981884;28;19909;-76
2023/01/23 12:41:45;;;;;;;;;;;4.50;99.90;;;;;;4981466;28;19910;-77
2023/01/23 12:44:29;;;;;;;;;;;1.30;99.90;;;;;;4983134;28;20504;-77
2023/01/23 12:46:55;;;;;;;;;;;4.60;99.90;;;;;;4968728;28;19910;-77
2023/01/23 12:49:20;;;;;;;;;;;4.80;99.90;;;;;;4990174;28;19910;-76
2023/01/23 12:51:50;;;;;;;;;;;4.80;99.90;;;;;;5047368;28;20007;-77
2023/01/23 12:54:18;;;;;;;;;;;4.80;99.90;;;;;;5045832;28;19909;-77
2023/01/23 12:56:44;;;;;;;;;;;4.90;99.90;;;;;;5046865;28;19979;-77
2023/01/23 12:59:14;;;;;;;;;;;4.90;99.90;;;;;;5027913;28;19913;-76
2023/01/23 13:01:53;;;;;;;;;;;4.90;99.90;;;;;;5028406;28;19954;-77
2023/01/23 13:04:22;;;;;;;;;;;4.90;99.90;;;;;;5027632;28;19913;-77
2023/01/23 13:07:06;;;;;;;;;;;5.00;99.90;;;;;;5027389;28;19912;-77
2023/01/23 13:09:38;;;;;;;;;;;5.70;99.90;;;;;;5028636;28;20670;-77
2023/01/23 13:12:10;;;;;;;;;;;4.90;99.90;;;;;;5029271;28;19912;-77
2023/01/23 13:14:43;;;;;;;;;;;5.00;99.90;;;;;;5028164;28;19913;-78
2023/01/23 13:17:24;;;;;;;;;;;4.90;99.90;;;;;;5027409;28;20532;-77
2023/01/23 13:22:37;;;;;;;;;;;4.90;99.90;;;;;;5046397;28;19966;-77
2023/01/23 13:25:08;;;;;;;;;;;4.90;99.90;;;;;;5044512;28;19915;-77
2023/01/23 13:27:51;;;;;;;;;;;5.90;99.90;;;;;;5045320;28;19919;-76
2023/01/23 13:30:25;;;;;;;;;;;4.80;99.90;;;;;;5044676;28;20121;-77
2023/01/23 13:32:53;;;;;;;;;;;4.70;99.90;;;;;;5045205;28;19920;-77
2023/01/23 13:35:44;;;;;;;;;;;4.70;99.90;;;;;;5026607;28;19962;-77
2023/01/23 13:38:36;;;;;;;;;;;4.70;99.90;;;;;;5045405;28;19909;-77
2023/01/23 13:41:07;;;;;;;;;;;4.70;99.90;;;;;;5046440;28;20125;-77
2023/01/23 13:43:54;;;;;;;;;;;4.70;99.90;;;;;;5027404;28;20459;-77
2023/01/23 13:46:38;;;;;;;;;;;4.80;99.90;;;;;;5029253;28;19905;-78
2023/01/23 13:56:37;;;;;;;;;;;4.70;99.90;;;;;;5045722;28;19912;-78
2023/01/23 13:57:37;;;;;;;;;;;4.70;99.90;;;;;;5046048;28;20022;-76
2023/01/23 14:00:03;;;;;;;;;;;4.60;99.90;;;;;;5047280;28;20697;-77
2023/01/23 14:05:25;;;;;;;;;;;4.60;99.90;;;;;;5046456;28;19912;-77
2023/01/23 14:07:58;;;;;;;;;;;4.60;99.90;;;;;;5046295;28;20595;-78
2023/01/23 14:10:24;;;;;;;;;;;4.60;99.90;;;;;;5030328;28;19916;-77
2023/01/23 14:12:50;;;;;;;;;;;4.60;99.90;;;;;;5027796;28;19909;-77
2023/01/23 14:18:33;;;;;;;;;;;4.50;99.90;;;;;;5045676;28;20026;-77
2023/01/23 14:21:04;;;;;;;;;;;4.50;99.90;;;;;;4983449;28;19918;-77
2023/01/23 14:23:35;;;;;;;;;;;4.40;99.90;;;;;;4982235;28;19970;-77
2023/01/23 14:26:01;;;;;;;;;;;4.40;99.90;;;;;;4981402;28;20197;-77
2023/01/23 14:28:27;;;;;;;;;;;4.40;99.90;;;;;;4982180;28;19956;-78
2023/01/23 14:31:02;;;;;;;;;;;4.30;99.90;;;;;;4965666;28;19960;-77
2023/01/23 14:33:38;;;;;;;;;;;4.30;99.90;;;;;;4982311;28;19933;-77
2023/01/23 14:36:04;;;;;;;;;;;5.00;99.90;;;;;;4965524;28;20640;-77
2023/01/23 14:38:32;;;;;;;;;;;4.20;99.90;;;;;;4984432;28;20044;-77
2023/01/23 14:40:58;;;;;;;;;;;4.10;99.90;;;;;;4965827;28;20563;-78
2023/01/23 14:43:26;;;;;;;;;;;4.10;99.90;;;;;;4984039;28;19913;-77
2023/01/23 14:45:58;;;;;;;;;;;4.00;99.90;;;;;;4983683;28;19910;-77
2023/01/23 14:48:24;;;;;;;;;;;4.00;99.90;;;;;;4983612;28;19914;-77
2023/01/23 14:50:59;;;;;;;;;;;3.90;99.90;;;;;;4982686;28;19906;-77
2023/01/23 14:53:31;;;;;;;;;;;3.90;99.90;;;;;;4985861;28;19982;-77
2023/01/23 14:56:00;;;;;;;;;;;2.50;99.90;;;;;;4984533;28;19999;-77
2023/01/23 14:58:27;;;;;;;;;;;3.70;99.90;;;;;;5032980;28;19935;-78
2023/01/23 15:00:53;;;;;;;;;;;3.90;99.90;;;;;;5006833;28;19920;-77